Time;durP1;ratioP1;P1;durP2;ratioP2;P2;SDS_P1;SDS_P2;PMS_P1;PMS_P2;Temp;Humidity;BMP_temperature;BMP_pressure;BME280_temperature;BME280_humidity;BME280_pressure;Samples;Min_cycle;Max_cycle;Signal;HPM_P1;HPM_P2
2023/12/07 00:00:18;;;;;;;21.77;13.23;;;1.00;99.90;;;;;;5013653;28;20209;-83
2023/12/07 00:02:44;;;;;;;20.03;12.53;;;1.00;99.90;;;;;;5030476;28;20179;-83
2023/12/07 00:05:10;;;;;;;22.40;13.00;;;1.10;99.90;;;;;;5014088;28;20219;-85
2023/12/07 00:07:35;;;;;;;19.80;12.77;;;1.10;99.90;;;;;;5015254;28;20184;-83
2023/12/07 00:10:01;;;;;;;22.07;13.30;;;1.10;99.90;;;;;;5015386;28;20184;-83
2023/12/07 00:12:26;;;;;;;21.13;13.53;;;1.00;99.90;;;;;;5015216;28;20239;-83
2023/12/07 00:14:52;;;;;;;21.20;13.77;;;1.10;99.90;;;;;;5013805;28;20290;-85
2023/12/07 00:17:17;;;;;;;20.90;13.70;;;1.10;99.90;;;;;;5014073;28;20191;-83
2023/12/07 00:19:43;;;;;;;21.90;14.17;;;1.10;99.90;;;;;;5014569;28;20217;-83
2023/12/07 00:22:08;;;;;;;21.83;13.30;;;1.10;99.90;;;;;;5014008;28;20235;-83
2023/12/07 00:24:34;;;;;;;22.77;12.83;;;1.20;99.90;;;;;;5013814;28;20209;-83
2023/12/07 00:26:59;;;;;;;21.73;13.27;;;1.20;99.90;;;;;;5015246;28;20681;-83
2023/12/07 00:29:25;;;;;;;20.37;13.23;;;1.30;99.90;;;;;;5013083;28;20728;-83
2023/12/07 00:31:51;;;;;;;19.80;12.13;;;1.20;99.90;;;;;;5015092;28;20191;-83
2023/12/07 00:34:17;;;;;;;20.60;12.97;;;1.20;99.90;;;;;;5013679;28;20222;-83
2023/12/07 00:36:43;;;;;;;23.10;13.50;;;1.20;99.90;;;;;;5013631;28;20175;-84
2023/12/07 00:39:08;;;;;;;21.83;13.37;;;1.20;99.90;;;;;;5014950;28;20187;-83
2023/12/07 00:41:34;;;;;;;20.90;13.03;;;1.20;99.90;;;;;;5013025;28;20176;-83
2023/12/07 00:44:00;;;;;;;21.50;13.40;;;1.10;99.90;;;;;;5013508;28;20208;-83
2023/12/07 00:46:25;;;;;;;19.77;12.87;;;1.20;99.90;;;;;;5013445;28;20186;-83
2023/12/07 00:48:51;;;;;;;21.47;13.07;;;1.20;99.90;;;;;;5014006;28;20212;-83
2023/12/07 00:51:16;;;;;;;19.40;12.23;;;1.10;99.90;;;;;;5014379;28;20427;-83
2023/12/07 00:53:42;;;;;;;23.33;13.20;;;1.10;99.90;;;;;;5029166;28;20208;-83
2023/12/07 00:56:08;;;;;;;22.13;13.13;;;1.10;99.90;;;;;;5012888;28;20224;-83
2023/12/07 00:58:34;;;;;;;22.43;13.73;;;1.20;99.90;;;;;;5012862;28;20173;-83
2023/12/07 01:01:00;;;;;;;24.20;13.80;;;1.10;99.90;;;;;;5012765;28;20177;-84
2023/12/07 01:03:25;;;;;;;19.23;12.30;;;1.10;99.90;;;;;;5014363;28;20209;-85
2023/12/07 01:05:51;;;;;;;22.63;13.93;;;1.10;99.90;;;;;;5013127;28;20172;-83
2023/12/07 01:08:16;;;;;;;21.33;13.30;;;1.20;99.90;;;;;;5014190;28;20177;-83
2023/12/07 01:10:42;;;;;;;20.30;12.47;;;1.20;99.90;;;;;;5013806;28;20176;-83
2023/12/07 01:13:07;;;;;;;21.87;12.93;;;1.20;99.90;;;;;;5013767;28;20273;-84
2023/12/07 01:15:33;;;;;;;17.60;11.40;;;1.20;99.90;;;;;;5013020;28;20264;-83
2023/12/07 01:17:58;;;;;;;20.90;12.70;;;1.20;99.90;;;;;;5013188;28;20263;-83
2023/12/07 01:20:24;;;;;;;18.10;11.83;;;1.10;99.90;;;;;;5013559;28;20640;-83
2023/12/07 01:22:50;;;;;;;20.07;13.37;;;1.20;99.90;;;;;;5013267;28;20176;-83
2023/12/07 01:25:21;;;;;;;18.53;12.53;;;1.10;99.90;;;;;;5013889;28;20220;-83
2023/12/07 01:27:46;;;;;;;21.77;12.87;;;1.20;99.90;;;;;;5013768;28;20197;-83
2023/12/07 01:30:12;;;;;;;20.63;13.13;;;1.10;99.90;;;;;;5012101;28;20179;-84
2023/12/07 01:32:38;;;;;;;21.27;13.27;;;1.20;99.90;;;;;;5012577;28;20195;-83
2023/12/07 01:35:04;;;;;;;20.47;12.47;;;1.20;99.90;;;;;;5012333;28;20200;-83
2023/12/07 01:37:30;;;;;;;19.07;12.20;;;1.20;99.90;;;;;;5012536;28;20179;-83
2023/12/07 01:39:56;;;;;;;18.13;12.40;;;1.20;99.90;;;;;;5013078;28;20180;-83
2023/12/07 01:42:21;;;;;;;18.47;12.40;;;1.20;99.90;;;;;;5012483;28;20543;-83
2023/12/07 01:44:47;;;;;;;18.37;12.40;;;1.20;99.90;;;;;;5013462;28;20200;-83
2023/12/07 01:47:13;;;;;;;18.30;11.70;;;1.10;99.90;;;;;;5012376;28;20181;-85
2023/12/07 01:49:39;;;;;;;18.90;11.90;;;1.10;99.90;;;;;;5012976;28;20180;-83
2023/12/07 01:52:06;;;;;;;22.83;13.13;;;1.10;99.90;;;;;;5012227;28;20284;-86
2023/12/07 01:54:32;;;;;;;19.40;11.33;;;1.10;99.90;;;;;;5013412;28;20192;-83
2023/12/07 01:56:58;;;;;;;20.30;12.23;;;1.10;99.90;;;;;;5013241;28;20227;-83
2023/12/07 01:59:24;;;;;;;19.37;12.00;;;1.10;99.90;;;;;;5012756;28;20181;-83
2023/12/07 02:01:50;;;;;;;20.30;12.60;;;1.10;99.90;;;;;;5013233;28;20177;-83
2023/12/07 02:04:16;;;;;;;18.23;11.83;;;1.10;99.90;;;;;;5011745;28;20217;-83
2023/12/07 02:06:42;;;;;;;19.83;12.53;;;1.10;99.90;;;;;;5011887;28;20181;-83
2023/12/07 02:09:08;;;;;;;19.53;13.07;;;1.10;99.90;;;;;;5011755;28;20189;-83
2023/12/07 02:11:34;;;;;;;20.03;12.07;;;1.10;99.90;;;;;;5011505;28;20181;-83
2023/12/07 02:14:00;;;;;;;20.60;12.53;;;1.10;99.90;;;;;;5011725;28;20244;-83
2023/12/07 02:17:01;;;;;;;19.83;12.67;;;1.10;99.90;;;;;;5013288;28;20250;-83
2023/12/07 02:19:51;;;;;;;20.07;11.93;;;1.10;99.90;;;;;;5012746;28;20174;-83
2023/12/07 02:22:23;;;;;;;17.23;12.27;;;1.10;99.90;;;;;;5013109;28;20210;-83
2023/12/07 02:25:14;;;;;;;19.30;11.90;;;1.10;99.90;;;;;;5012849;28;20288;-83
2023/12/07 02:27:40;;;;;;;17.07;11.47;;;1.10;99.90;;;;;;5012734;28;20192;-83
2023/12/07 02:30:08;;;;;;;18.63;12.10;;;1.20;99.90;;;;;;5012143;28;20190;-83
2023/12/07 02:32:35;;;;;;;17.87;11.37;;;1.10;99.90;;;;;;5013117;28;20209;-83
2023/12/07 02:35:01;;;;;;;17.17;12.00;;;1.20;99.90;;;;;;5027985;28;20208;-83
2023/12/07 02:37:32;;;;;;;19.40;12.27;;;1.20;99.90;;;;;;5027920;28;20173;-83
2023/12/07 02:39:57;;;;;;;18.43;11.07;;;1.10;99.90;;;;;;5010953;28;20189;-83
2023/12/07 02:42:25;;;;;;;19.13;11.83;;;1.20;99.90;;;;;;5027915;28;20180;-83
2023/12/07 02:44:53;;;;;;;18.77;11.97;;;1.20;99.90;;;;;;5027682;28;20579;-83
2023/12/07 02:47:19;;;;;;;20.23;12.80;;;1.20;99.90;;;;;;5028096;28;20192;-85
2023/12/07 02:49:44;;;;;;;24.33;13.73;;;1.20;99.90;;;;;;5012198;28;20261;-84
2023/12/07 02:52:10;;;;;;;17.63;11.70;;;1.20;99.90;;;;;;5027800;28;20209;-83
2023/12/07 02:54:36;;;;;;;18.63;11.93;;;1.20;99.90;;;;;;5012764;28;20283;-83
2023/12/07 02:57:01;;;;;;;17.33;10.87;;;1.20;99.90;;;;;;5027667;28;20181;-83
2023/12/07 02:59:27;;;;;;;18.30;11.43;;;1.20;99.90;;;;;;5027042;28;20178;-83
2023/12/07 03:01:52;;;;;;;18.07;11.03;;;1.20;99.90;;;;;;5028006;28;20209;-83
2023/12/07 03:04:18;;;;;;;17.97;11.57;;;1.20;99.90;;;;;;5077031;23;20221;-88
2023/12/07 03:06:43;;;;;;;17.17;11.13;;;1.20;99.90;;;;;;5030433;28;20176;-88
2023/12/07 03:09:09;;;;;;;16.87;11.37;;;1.20;99.90;;;;;;5030415;28;20726;-88
2023/12/07 03:11:34;;;;;;;17.90;11.80;;;1.20;99.90;;;;;;5031319;28;20544;-88
2023/12/07 03:14:00;;;;;;;15.90;10.83;;;1.20;99.90;;;;;;5030419;28;20252;-88
2023/12/07 03:16:25;;;;;;;17.30;11.47;;;1.30;99.90;;;;;;5031701;28;20175;-88
2023/12/07 03:18:51;;;;;;;17.27;10.93;;;1.30;99.90;;;;;;5034246;28;20169;-89
2023/12/07 03:21:16;;;;;;;17.90;11.63;;;1.30;99.90;;;;;;5034061;28;20567;-88
2023/12/07 03:23:42;;;;;;;15.90;11.37;;;1.30;99.90;;;;;;5035425;28;20204;-88
2023/12/07 03:26:07;;;;;;;18.20;11.13;;;1.30;99.90;;;;;;5034367;28;20180;-88
2023/12/07 03:28:33;;;;;;;15.40;11.30;;;1.30;99.90;;;;;;5034114;28;20172;-87
2023/12/07 03:30:59;;;;;;;16.23;11.03;;;1.30;99.90;;;;;;5033912;28;20196;-88
2023/12/07 03:33:24;;;;;;;16.93;11.23;;;1.20;99.90;;;;;;5034010;28;20211;-88
2023/12/07 03:35:50;;;;;;;17.93;11.27;;;1.20;99.90;;;;;;5034389;28;20185;-87
2023/12/07 03:38:15;;;;;;;17.97;11.97;;;1.20;99.90;;;;;;5034052;28;20255;-88
2023/12/07 03:40:41;;;;;;;18.80;11.97;;;1.20;99.90;;;;;;5033366;28;20177;-88
2023/12/07 03:43:07;;;;;;;20.57;12.43;;;1.30;99.90;;;;;;5033922;28;20185;-88
2023/12/07 03:45:32;;;;;;;17.50;11.90;;;1.30;99.90;;;;;;5034041;28;20269;-88
2023/12/07 03:47:58;;;;;;;18.80;12.33;;;1.30;99.90;;;;;;5034040;28;20186;-88
2023/12/07 03:50:23;;;;;;;18.60;11.67;;;1.30;99.90;;;;;;5033481;28;20464;-88
2023/12/07 03:52:49;;;;;;;19.80;11.83;;;1.40;99.90;;;;;;5033815;28;20225;-88
2023/12/07 03:55:14;;;;;;;21.37;12.70;;;1.30;99.90;;;;;;5034868;28;20196;-88
2023/12/07 03:57:40;;;;;;;22.03;12.20;;;1.30;99.90;;;;;;5034813;28;20212;-88
2023/12/07 04:00:08;;;;;;;18.80;11.93;;;1.40;99.90;;;;;;5033114;28;20231;-88
2023/12/07 04:02:33;;;;;;;17.57;11.53;;;1.40;99.90;;;;;;5033816;28;20660;-88
2023/12/07 04:05:02;;;;;;;19.03;11.57;;;1.40;99.90;;;;;;5033391;28;20296;-88
2023/12/07 04:07:29;;;;;;;17.30;11.10;;;1.30;99.90;;;;;;5033610;28;20275;-87
2023/12/07 04:09:55;;;;;;;20.53;11.90;;;1.40;99.90;;;;;;5034157;28;20208;-88
2023/12/07 04:12:20;;;;;;;18.83;11.03;;;1.30;99.90;;;;;;5033391;28;20230;-89
2023/12/07 04:14:46;;;;;;;20.57;12.83;;;1.30;99.90;;;;;;5034650;28;20219;-87
2023/12/07 04:17:11;;;;;;;18.63;11.43;;;1.30;99.90;;;;;;5034661;28;20660;-88
2023/12/07 04:19:37;;;;;;;19.50;12.43;;;1.30;99.90;;;;;;5032695;28;20179;-88
2023/12/07 04:22:03;;;;;;;19.90;12.50;;;1.30;99.90;;;;;;5033235;28;20177;-88
2023/12/07 04:24:29;;;;;;;20.17;11.77;;;1.30;99.90;;;;;;5034528;28;20276;-88
2023/12/07 04:26:54;;;;;;;18.20;11.77;;;1.30;99.90;;;;;;5033078;28;20202;-88
2023/12/07 04:29:20;;;;;;;19.30;11.43;;;1.30;99.90;;;;;;5033873;28;20174;-87
2023/12/07 04:31:45;;;;;;;18.13;11.23;;;1.20;99.90;;;;;;5033137;28;20186;-88
2023/12/07 04:34:11;;;;;;;18.27;11.67;;;1.20;99.90;;;;;;5032830;28;20295;-88
2023/12/07 04:36:37;;;;;;;20.60;12.57;;;1.20;99.90;;;;;;5033281;28;20243;-88
2023/12/07 04:39:03;;;;;;;18.80;11.67;;;1.20;99.90;;;;;;5032797;28;20180;-88
2023/12/07 04:41:28;;;;;;;20.67;11.97;;;1.20;99.90;;;;;;5032892;28;20208;-88
2023/12/07 04:43:54;;;;;;;19.90;12.33;;;1.30;99.90;;;;;;5032615;28;20208;-87
2023/12/07 04:46:20;;;;;;;18.53;11.53;;;1.30;99.90;;;;;;5032839;28;20204;-88
2023/12/07 04:48:45;;;;;;;18.07;11.17;;;1.30;99.90;;;;;;5033845;28;20185;-88
2023/12/07 04:51:11;;;;;;;17.47;11.33;;;1.30;99.90;;;;;;5032218;28;20203;-88
2023/12/07 04:53:37;;;;;;;18.17;11.60;;;1.20;99.90;;;;;;5032585;28;20213;-88
2023/12/07 04:56:02;;;;;;;18.43;11.57;;;1.20;99.90;;;;;;5032488;28;20706;-87
2023/12/07 04:58:28;;;;;;;18.77;11.43;;;1.20;99.90;;;;;;5032498;28;20184;-88
2023/12/07 05:00:54;;;;;;;17.37;11.43;;;1.20;99.90;;;;;;5031998;28;20232;-88
2023/12/07 05:03:19;;;;;;;19.77;11.80;;;1.20;99.90;;;;;;5032383;28;20180;-87
2023/12/07 05:05:45;;;;;;;21.03;12.30;;;1.20;99.90;;;;;;5032503;28;20193;-88
2023/12/07 05:08:10;;;;;;;17.93;12.03;;;1.20;99.90;;;;;;5033552;28;20629;-88
2023/12/07 05:10:36;;;;;;;18.87;11.53;;;1.20;99.90;;;;;;5031783;28;20188;-88
2023/12/07 05:13:01;;;;;;;17.70;11.47;;;1.20;99.90;;;;;;5032494;28;20209;-88
2023/12/07 05:15:27;;;;;;;18.13;11.60;;;1.20;99.90;;;;;;5033706;28;20253;-87
2023/12/07 05:17:53;;;;;;;15.20;11.07;;;1.20;99.90;;;;;;5033449;28;20192;-88
2023/12/07 05:20:22;;;;;;;17.43;11.87;;;1.20;99.90;;;;;;5032928;28;20181;-87
2023/12/07 05:22:48;;;;;;;22.33;12.90;;;1.20;99.90;;;;;;5032185;28;20177;-88
2023/12/07 05:25:13;;;;;;;19.13;11.57;;;1.30;99.90;;;;;;5033062;28;20563;-88
2023/12/07 05:27:39;;;;;;;18.33;11.93;;;1.20;99.90;;;;;;5031725;28;20187;-87
2023/12/07 05:30:05;;;;;;;19.10;12.07;;;1.20;99.90;;;;;;5031512;28;20238;-88
2023/12/07 05:32:31;;;;;;;18.47;12.67;;;1.20;99.90;;;;;;5031890;28;20255;-88
2023/12/07 05:34:56;;;;;;;20.73;12.23;;;1.30;99.90;;;;;;5033120;28;20204;-87
2023/12/07 05:37:22;;;;;;;18.47;12.60;;;1.20;99.90;;;;;;5032997;28;20181;-87
2023/12/07 05:39:47;;;;;;;16.83;11.17;;;1.30;99.90;;;;;;5031035;28;20177;-88
2023/12/07 05:42:13;;;;;;;20.30;12.63;;;1.30;99.90;;;;;;5032402;28;20200;-88
2023/12/07 05:44:38;;;;;;;18.83;11.77;;;1.30;99.90;;;;;;5031663;28;20192;-87
2023/12/07 05:47:04;;;;;;;18.53;11.57;;;1.20;99.90;;;;;;5031612;28;20264;-88
2023/12/07 05:49:30;;;;;;;18.23;10.80;;;1.30;99.90;;;;;;5031191;28;20204;-87
2023/12/07 05:51:55;;;;;;;17.67;10.77;;;1.30;99.90;;;;;;5031609;28;20177;-84
2023/12/07 05:54:22;;;;;;;17.37;11.10;;;1.30;99.90;;;;;;5032668;28;20359;-84
2023/12/07 05:56:47;;;;;;;18.70;11.43;;;1.90;99.90;;;;;;5033067;28;20184;-85
2023/12/07 05:59:13;;;;;;;16.03;10.20;;;2.50;99.90;;;;;;5031522;28;20182;-86
2023/12/07 06:01:39;;;;;;;17.80;10.83;;;2.80;99.90;;;;;;5031980;28;20173;-89
2023/12/07 06:04:08;;;;;;;14.70;10.00;;;3.20;99.90;;;;;;5033649;28;20214;-89
2023/12/07 06:06:34;;;;;;;14.37;10.70;;;3.10;99.90;;;;;;5036586;28;20186;-89
2023/12/07 06:08:59;;;;;;;16.10;10.27;;;3.00;99.90;;;;;;5036200;28;20195;-86
2023/12/07 06:11:25;;;;;;;16.87;10.43;;;2.50;99.90;;;;;;5032364;28;20178;-88
2023/12/07 06:13:50;;;;;;;17.50;10.97;;;2.20;99.90;;;;;;5031214;28;20589;-86
2023/12/07 06:16:17;;;;;;;17.20;11.43;;;2.00;99.90;;;;;;5032510;28;20585;-87
2023/12/07 06:18:43;;;;;;;15.50;10.40;;;1.80;99.90;;;;;;5031151;28;20205;-87
2023/12/07 06:21:08;;;;;;;18.63;11.80;;;1.70;99.90;;;;;;5031792;28;20228;-87
2023/12/07 06:23:35;;;;;;;18.60;11.80;;;1.60;99.90;;;;;;5030809;28;20220;-87
2023/12/07 06:26:01;;;;;;;17.80;11.83;;;1.50;99.90;;;;;;5032565;28;20669;-87
2023/12/07 06:28:27;;;;;;;17.90;11.73;;;1.50;99.90;;;;;;5032409;28;20177;-87
2023/12/07 06:30:53;;;;;;;17.50;11.93;;;1.50;99.90;;;;;;5030738;28;20208;-87
2023/12/07 06:33:18;;;;;;;19.67;12.00;;;1.50;99.90;;;;;;5030697;28;20572;-87
2023/12/07 06:35:46;;;;;;;18.10;12.07;;;1.40;99.90;;;;;;5030961;28;20181;-87
2023/12/07 06:38:12;;;;;;;18.67;12.10;;;1.40;99.90;;;;;;5030810;28;20181;-87
2023/12/07 06:40:37;;;;;;;21.40;12.57;;;1.40;99.90;;;;;;5030590;28;20602;-86
2023/12/07 06:43:03;;;;;;;19.30;13.13;;;1.40;99.90;;;;;;5030820;28;20193;-87
2023/12/07 06:45:28;;;;;;;19.70;12.70;;;1.40;99.90;;;;;;5030956;28;20204;-84
2023/12/07 06:47:54;;;;;;;17.83;12.00;;;1.40;99.90;;;;;;5032078;28;20188;-89
2023/12/07 06:50:19;;;;;;;18.43;11.80;;;1.40;99.90;;;;;;5030230;28;20181;-86
2023/12/07 06:52:45;;;;;;;19.33;12.47;;;1.40;99.90;;;;;;5029737;28;20298;-86
2023/12/07 06:55:10;;;;;;;18.93;12.60;;;1.30;99.90;;;;;;5030925;28;20198;-86
2023/12/07 06:57:36;;;;;;;21.50;12.63;;;1.30;99.90;;;;;;5031035;28;20265;-88
2023/12/07 07:00:05;;;;;;;19.23;12.37;;;1.30;99.90;;;;;;5030311;28;20528;-91
2023/12/07 07:02:31;;;;;;;20.40;12.87;;;1.30;99.90;;;;;;5030781;28;20205;-88
2023/12/07 07:04:57;;;;;;;19.73;12.57;;;1.30;99.90;;;;;;5030658;28;20240;-88
2023/12/07 07:07:22;;;;;;;21.07;12.73;;;1.40;99.90;;;;;;5028894;28;20176;-85
2023/12/07 07:09:48;;;;;;;21.30;12.70;;;1.30;99.90;;;;;;5031169;28;20189;-85
2023/12/07 07:12:13;;;;;;;20.27;13.50;;;1.40;99.90;;;;;;5031610;28;20191;-86
2023/12/07 07:14:39;;;;;;;20.83;13.63;;;1.30;99.90;;;;;;5030388;28;20218;-86
2023/12/07 07:17:05;;;;;;;21.93;15.20;;;1.30;99.90;;;;;;5014258;28;20267;-86
2023/12/07 07:19:31;;;;;;;21.20;13.20;;;1.30;99.90;;;;;;5031578;28;20354;-85
2023/12/07 07:21:56;;;;;;;19.57;12.57;;;1.30;99.90;;;;;;5032625;28;20177;-85
2023/12/07 07:24:22;;;;;;;20.93;12.77;;;1.30;99.90;;;;;;5032622;28;20343;-86
2023/12/07 07:26:48;;;;;;;23.00;15.53;;;1.30;99.90;;;;;;5030982;28;20206;-86
2023/12/07 07:29:13;;;;;;;25.57;15.83;;;1.30;99.90;;;;;;5032045;28;20184;-85
2023/12/07 07:31:39;;;;;;;23.00;13.70;;;1.30;99.90;;;;;;5031057;28;20614;-85
2023/12/07 07:34:05;;;;;;;25.60;15.20;;;1.20;99.90;;;;;;5031819;28;20245;-86
2023/12/07 07:36:32;;;;;;;23.30;14.27;;;1.20;99.90;;;;;;5030820;28;20223;-86
2023/12/07 07:38:57;;;;;;;24.00;14.73;;;1.20;99.90;;;;;;5032165;28;20188;-85
2023/12/07 07:41:23;;;;;;;26.20;14.97;;;1.20;99.90;;;;;;5030681;28;20180;-86
2023/12/07 07:43:50;;;;;;;26.03;15.63;;;1.30;99.90;;;;;;5031683;28;20239;-85
2023/12/07 07:46:16;;;;;;;25.43;15.20;;;1.20;99.90;;;;;;5032000;28;20272;-86
2023/12/07 07:48:41;;;;;;;24.37;14.87;;;1.20;99.90;;;;;;5031022;28;20214;-86
2023/12/07 07:51:07;;;;;;;26.63;14.87;;;1.10;99.90;;;;;;5030602;28;20202;-85
2023/12/07 07:53:33;;;;;;;23.27;14.13;;;1.10;99.90;;;;;;5032103;28;20297;-86
2023/12/07 07:55:58;;;;;;;23.23;13.93;;;1.10;99.90;;;;;;5032046;28;20183;-85
2023/12/07 07:58:24;;;;;;;20.13;12.13;;;1.10;99.90;;;;;;5030742;28;20184;-85
2023/12/07 08:00:51;;;;;;;20.63;12.13;;;1.10;99.90;;;;;;5031524;28;20172;-85
2023/12/07 08:03:16;;;;;;;22.30;12.07;;;1.10;99.90;;;;;;5030688;28;20185;-84
2023/12/07 08:05:42;;;;;;;21.47;12.93;;;1.10;99.90;;;;;;5034534;28;20221;-86
2023/12/07 08:08:09;;;;;;;22.50;12.70;;;1.10;99.90;;;;;;5035778;28;20175;-85
2023/12/07 08:10:34;;;;;;;22.23;13.20;;;1.10;99.90;;;;;;5033797;28;20706;-86
2023/12/07 08:13:00;;;;;;;20.67;12.87;;;1.10;99.90;;;;;;5034021;28;20231;-85
2023/12/07 08:15:25;;;;;;;21.23;12.23;;;1.00;99.90;;;;;;5035063;28;20687;-85
2023/12/07 08:17:51;;;;;;;23.07;13.07;;;1.00;99.90;;;;;;5034350;28;20171;-86
2023/12/07 08:20:17;;;;;;;21.10;12.90;;;1.00;99.90;;;;;;5033619;28;20180;-85
2023/12/07 08:22:43;;;;;;;18.93;12.10;;;1.00;99.90;;;;;;5035417;28;20184;-85
2023/12/07 08:25:11;;;;;;;24.80;13.87;;;1.00;99.90;;;;;;5033765;28;20194;-85
2023/12/07 08:27:37;;;;;;;23.63;13.50;;;1.10;99.90;;;;;;5033814;28;20178;-85
2023/12/07 08:30:05;;;;;;;22.73;14.13;;;1.10;99.90;;;;;;5034717;28;20179;-86
2023/12/07 08:32:31;;;;;;;21.97;13.80;;;1.20;99.90;;;;;;5033867;28;20226;-85
2023/12/07 08:34:56;;;;;;;23.17;13.40;;;1.20;99.90;;;;;;5033795;28;20231;-86
2023/12/07 08:37:22;;;;;;;20.97;12.63;;;1.30;99.90;;;;;;5034257;28;20611;-86
2023/12/07 08:39:48;;;;;;;20.23;12.40;;;1.20;99.90;;;;;;5033098;28;20573;-86
2023/12/07 08:42:14;;;;;;;19.47;12.07;;;1.20;99.90;;;;;;5034700;28;20179;-85
2023/12/07 08:44:40;;;;;;;20.50;12.03;;;1.30;99.90;;;;;;5034925;28;20219;-86
2023/12/07 08:47:06;;;;;;;20.33;12.30;;;1.30;99.90;;;;;;5034592;28;20552;-86
2023/12/07 08:49:32;;;;;;;18.33;11.63;;;1.30;99.90;;;;;;5033183;28;20660;-86
2023/12/07 08:51:58;;;;;;;18.40;11.80;;;1.40;99.90;;;;;;5033597;28;20180;-86
2023/12/07 08:54:24;;;;;;;19.37;11.37;;;1.40;99.90;;;;;;5034547;28;20310;-86
2023/12/07 08:56:51;;;;;;;18.10;12.03;;;1.40;99.90;;;;;;5034663;28;20266;-86
2023/12/07 08:59:16;;;;;;;19.20;11.53;;;1.30;99.90;;;;;;5034435;28;20177;-83
2023/12/07 09:01:42;;;;;;;18.27;10.60;;;1.30;99.90;;;;;;5033268;28;20560;-86
2023/12/07 09:04:08;;;;;;;16.73;11.07;;;1.20;99.90;;;;;;5049162;22;20222;-84
2023/12/07 09:06:34;;;;;;;21.33;12.10;;;1.30;99.90;;;;;;5036834;28;20182;-84
2023/12/07 09:08:59;;;;;;;19.47;11.90;;;1.30;99.90;;;;;;5054824;28;20597;-84
2023/12/07 09:11:25;;;;;;;18.30;11.37;;;1.30;99.90;;;;;;5036615;28;20725;-84
2023/12/07 09:13:50;;;;;;;18.10;11.57;;;1.30;99.90;;;;;;5036344;28;20721;-84
2023/12/07 09:16:16;;;;;;;19.87;11.70;;;1.30;99.90;;;;;;5035998;28;20166;-84
2023/12/07 09:18:42;;;;;;;18.13;10.63;;;1.30;99.90;;;;;;5054462;28;20664;-84
2023/12/07 09:21:08;;;;;;;17.70;11.43;;;1.30;99.90;;;;;;5053621;28;20179;-84
2023/12/07 09:23:34;;;;;;;17.97;10.73;;;1.30;99.90;;;;;;5054292;28;20175;-85
2023/12/07 09:26:00;;;;;;;18.40;10.83;;;1.30;99.90;;;;;;5054270;28;20709;-84
2023/12/07 09:28:26;;;;;;;20.07;11.10;;;1.40;99.90;;;;;;5036631;28;20180;-84
2023/12/07 09:30:51;;;;;;;17.10;10.17;;;1.40;99.90;;;;;;5036066;28;20179;-84
2023/12/07 09:33:17;;;;;;;16.23;10.90;;;1.60;99.90;;;;;;5053465;28;20285;-84
2023/12/07 09:35:43;;;;;;;18.07;10.93;;;1.70;99.90;;;;;;5036081;28;20211;-83
2023/12/07 09:38:09;;;;;;;17.07;9.83;;;2.00;99.90;;;;;;5036803;28;20234;-84
2023/12/07 09:40:35;;;;;;;13.30;8.93;;;2.20;99.90;;;;;;5054193;28;20221;-84
2023/12/07 09:43:00;;;;;;;33.07;13.63;;;2.30;99.90;;;;;;5036367;28;20180;-84
2023/12/07 09:45:26;;;;;;;20.27;9.77;;;2.50;99.90;;;;;;5053960;28;20228;-85
2023/12/07 09:47:53;;;;;;;17.07;9.73;;;2.60;99.90;;;;;;5036328;28;20181;-85
2023/12/07 09:50:24;;;;;;;12.33;8.00;;;2.60;99.90;;;;;;5045325;28;20634;-83
2023/12/07 09:52:56;;;;;;;10.70;7.80;;;2.60;99.90;;;;;;5054085;28;20620;-82
2023/12/07 09:55:23;;;;;;;10.93;7.77;;;2.80;99.90;;;;;;5054033;28;20220;-82
2023/12/07 09:57:49;;;;;;;11.97;7.70;;;3.00;99.90;;;;;;5053936;28;20187;-84
2023/12/07 10:00:16;;;;;;;11.13;8.10;;;3.10;99.90;;;;;;5053350;28;20176;-82
2023/12/07 10:02:42;;;;;;;9.10;6.70;;;3.20;99.90;;;;;;5054079;28;20231;-80
2023/12/07 10:05:13;;;;;;;11.70;7.03;;;3.10;99.90;;;;;;5053305;28;20213;-82
2023/12/07 10:07:43;;;;;;;10.57;6.70;;;3.20;99.90;;;;;;5052356;28;20184;-85
2023/12/07 10:10:13;;;;;;;11.23;7.03;;;3.30;99.90;;;;;;5034934;28;20173;-84
2023/12/07 10:12:52;;;;;;;12.30;7.33;;;3.50;99.90;;;;;;5053284;28;20209;-81
2023/12/07 10:15:19;;;;;;;12.60;8.10;;;3.40;96.60;;;;;;5053617;28;20190;-84
2023/12/07 10:17:56;;;;;;;12.60;8.17;;;3.40;11.40;;;;;;5053875;28;20185;-82
2023/12/07 10:20:23;;;;;;;12.87;8.70;;;3.30;1.00;;;;;;5034962;28;20268;-80
2023/12/07 10:23:03;;;;;;;11.97;7.40;;;3.30;46.90;;;;;;5053670;28;20181;-82
2023/12/07 10:25:34;;;;;;;10.40;7.00;;;3.50;99.90;;;;;;5053352;28;20212;-82
2023/12/07 10:28:00;;;;;;;11.03;6.87;;;3.70;99.90;;;;;;5035441;28;20173;-82
2023/12/07 10:30:27;;;;;;;10.67;7.27;;;3.80;4.70;;;;;;5052633;28;20203;-82
2023/12/07 10:32:53;;;;;;;9.87;6.77;;;4.00;28.60;;;;;;5052756;28;20204;-80
2023/12/07 10:35:20;;;;;;;12.43;7.90;;;4.10;1.00;;;;;;5015855;28;20717;-83
2023/12/07 10:37:46;;;;;;;9.67;7.10;;;3.90;1.00;;;;;;5032848;28;20190;-82
2023/12/07 10:40:12;;;;;;;10.80;8.27;;;3.90;1.00;;;;;;5050415;28;20173;-83
2023/12/07 10:42:41;;;;;;;11.97;7.77;;;4.00;1.00;;;;;;5034894;28;20231;-82
2023/12/07 10:45:07;;;;;;;10.30;5.80;;;4.20;1.00;;;;;;5035233;28;20204;-82
2023/12/07 10:47:39;;;;;;;8.47;6.03;;;4.00;99.90;;;;;;5052588;28;20213;-82
2023/12/07 10:50:10;;;;;;;8.80;6.27;;;3.90;1.00;;;;;;5033992;28;20174;-82
2023/12/07 10:52:40;;;;;;;8.97;6.47;;;3.80;1.00;;;;;;5052915;28;20670;-84
2023/12/07 10:55:23;;;;;;;9.17;6.00;;;4.00;1.00;;;;;;5052847;28;20193;-85
2023/12/07 10:57:52;;;;;;;11.10;7.50;;;3.80;99.90;;;;;;5034677;28;20177;-86
2023/12/07 11:00:19;;;;;;;7.93;6.30;;;3.70;1.00;;;;;;5034426;28;20170;-85
2023/12/07 11:02:45;;;;;;;10.30;7.63;;;3.70;1.00;;;;;;5034073;28;20235;-84
2023/12/07 11:05:11;;;;;;;12.33;8.40;;;3.60;1.60;;;;;;5034274;28;20236;-85
2023/12/07 11:07:47;;;;;;;13.77;9.17;;;3.60;99.90;;;;;;5052696;28;20179;-84
2023/12/07 11:10:22;;;;;;;13.67;9.53;;;3.60;99.90;;;;;;5051764;28;20187;-86
2023/12/07 11:12:59;;;;;;;14.30;9.13;;;3.60;99.90;;;;;;5052243;28;20210;-84
2023/12/07 11:15:25;;;;;;;17.73;11.27;;;4.00;99.90;;;;;;5033985;28;20199;-87
2023/12/07 11:17:55;;;;;;;18.17;11.07;;;4.40;99.90;;;;;;5052743;28;20174;-81
2023/12/07 11:20:31;;;;;;;15.60;10.80;;;4.30;96.30;;;;;;5034285;28;20197;-82
2023/12/07 11:22:56;;;;;;;13.20;9.10;;;5.20;99.90;;;;;;5034869;28;20188;-82
2023/12/07 11:25:22;;;;;;;13.70;9.10;;;5.90;99.90;;;;;;5054268;28;20262;-82
2023/12/07 11:27:47;;;;;;;15.03;9.83;;;6.20;1.00;;;;;;5036922;28;20182;-82
2023/12/07 11:30:15;;;;;;;14.00;9.60;;;5.60;99.90;;;;;;5054846;28;20211;-82
2023/12/07 11:32:40;;;;;;;13.30;9.73;;;5.00;1.00;;;;;;5053800;28;20214;-82
2023/12/07 11:35:11;;;;;;;13.87;9.97;;;4.60;1.00;;;;;;5036060;28;20195;-82
2023/12/07 11:38:08;;;;;;;12.73;9.30;;;4.50;94.30;;;;;;5054168;28;20202;-82
2023/12/07 11:40:43;;;;;;;11.10;8.53;;;4.60;21.40;;;;;;5039155;28;20180;-82
2023/12/07 11:43:40;;;;;;;12.53;9.23;;;4.60;1.00;;;;;;5040265;28;20180;-84
2023/12/07 11:46:07;;;;;;;13.37;9.67;;;4.70;1.00;;;;;;5039699;28;20200;-82
2023/12/07 11:48:32;;;;;;;13.40;8.40;;;4.70;1.00;;;;;;5039236;28;20188;-84
2023/12/07 11:50:59;;;;;;;16.10;9.80;;;4.40;1.00;;;;;;5038519;28;20180;-82
2023/12/07 11:53:27;;;;;;;12.73;8.90;;;4.50;1.00;;;;;;5039192;28;20213;-82
2023/12/07 11:55:53;;;;;;;14.73;9.20;;;4.70;1.00;;;;;;5057004;28;20195;-82
2023/12/07 11:58:18;;;;;;;11.10;8.17;;;4.80;1.00;;;;;;5057315;28;20179;-82
2023/12/07 12:00:46;;;;;;;10.77;7.97;;;4.90;1.00;;;;;;5038388;28;20181;-82
2023/12/07 12:03:15;;;;;;;12.97;9.60;;;4.90;1.00;;;;;;5056815;28;20263;-82
2023/12/07 12:05:41;;;;;;;12.67;8.87;;;4.90;1.00;;;;;;5056356;28;20218;-83
2023/12/07 12:08:07;;;;;;;10.53;8.03;;;5.00;99.90;;;;;;5057163;28;20182;-83
2023/12/07 12:10:33;;;;;;;10.97;8.57;;;5.10;99.90;;;;;;5055935;28;20174;-82
2023/12/07 12:13:03;;;;;;;13.10;8.73;;;5.70;1.00;;;;;;5038215;28;20200;-80
2023/12/07 12:15:29;;;;;;;11.70;8.50;;;5.90;1.00;;;;;;5038387;28;20196;-83
2023/12/07 12:17:58;;;;;;;11.43;8.27;;;6.10;41.70;;;;;;5056986;28;20183;-83
2023/12/07 12:20:25;;;;;;;10.87;7.87;;;5.90;99.90;;;;;;5035214;28;20279;-84
2023/12/07 12:22:53;;;;;;;13.17;8.00;;;5.20;99.90;;;;;;5037648;28;20176;-85
2023/12/07 12:25:20;;;;;;;15.60;8.53;;;5.10;99.90;;;;;;5055893;28;20613;-83
2023/12/07 12:27:47;;;;;;;10.90;8.27;;;5.30;1.00;;;;;;5055984;28;20204;-81
2023/12/07 12:30:13;;;;;;;13.23;7.83;;;5.60;99.90;;;;;;5055318;28;20188;-82
2023/12/07 12:32:45;;;;;;;12.50;8.63;;;6.20;1.00;;;;;;5056097;28;20208;-84
2023/12/07 12:35:11;;;;;;;12.37;9.33;;;5.90;1.00;;;;;;5038121;28;20193;-82
2023/12/07 12:37:39;;;;;;;12.90;9.40;;;5.70;1.00;;;;;;5055654;28;20162;-82